createdAt,value
2018-09-23T00:01:34.294Z,11.57
2018-09-23T00:04:04.858Z,12.70
2018-09-23T00:06:35.403Z,12.00
2018-09-23T00:09:07.767Z,12.77
2018-09-23T00:11:38.227Z,12.63
2018-09-23T00:14:10.313Z,13.03
2018-09-23T00:16:41.473Z,12.17
2018-09-23T00:19:12.187Z,11.83
2018-09-23T00:22:19.954Z,11.90
2018-09-23T00:24:50.537Z,12.20
2018-09-23T00:27:21.144Z,12.40
2018-09-23T00:29:52.679Z,12.53
2018-09-23T00:32:24.924Z,14.43
2018-09-23T00:34:55.289Z,12.77
2018-09-23T00:37:25.641Z,14.10
2018-09-23T00:39:56.548Z,13.90
2018-09-23T00:42:27.007Z,14.20
2018-09-23T00:44:57.572Z,13.67
2018-09-23T00:47:28.097Z,12.77
2018-09-23T00:49:58.706Z,12.63
2018-09-23T00:52:29.360Z,13.57
2018-09-23T00:54:59.774Z,12.80
2018-09-23T00:57:30.370Z,12.80
2018-09-23T01:00:00.918Z,12.87
2018-09-23T01:02:31.438Z,13.57
2018-09-23T01:05:01.777Z,12.70
2018-09-23T01:07:32.108Z,13.70
2018-09-23T01:10:02.574Z,13.17
2018-09-23T01:12:33.160Z,13.20
2018-09-23T01:15:03.646Z,12.07
2018-09-23T01:17:34.131Z,13.17
2018-09-23T01:20:04.699Z,12.10
2018-09-23T01:22:35.366Z,14.33
2018-09-23T01:25:06.133Z,15.33
2018-09-23T01:27:36.411Z,15.40
2018-09-23T01:30:07.313Z,15.07
2018-09-23T01:32:37.820Z,14.37
2018-09-23T01:35:08.335Z,15.23
2018-09-23T01:37:38.810Z,15.30
2018-09-23T01:40:09.361Z,14.00
2018-09-23T01:42:40.163Z,12.77
2018-09-23T01:45:10.640Z,13.67
2018-09-23T01:47:41.084Z,14.37
2018-09-23T01:50:11.594Z,14.57
2018-09-23T01:52:42.030Z,13.53
2018-09-23T01:55:12.411Z,13.00
2018-09-23T01:57:42.766Z,12.63
2018-09-23T02:00:13.312Z,13.93
2018-09-23T02:02:43.688Z,12.63
2018-09-23T02:05:14.264Z,14.77
2018-09-23T02:07:44.816Z,13.10
2018-09-23T02:10:15.534Z,14.83
2018-09-23T02:12:45.954Z,14.80
2018-09-23T02:15:16.688Z,14.43
2018-09-23T02:17:47.061Z,14.60
2018-09-23T02:20:17.565Z,14.73
2018-09-23T02:22:48.034Z,15.30
2018-09-23T02:25:18.438Z,14.60
2018-09-23T02:27:48.905Z,15.30
2018-09-23T02:30:19.340Z,15.00
2018-09-23T02:32:50.843Z,14.10
2018-09-23T02:35:22.760Z,12.93
2018-09-23T02:37:55.475Z,13.67
2018-09-23T02:40:26.031Z,14.27
2018-09-23T02:42:56.469Z,13.90
2018-09-23T02:45:27.071Z,13.20
2018-09-23T02:47:57.336Z,12.43
2018-09-23T02:50:27.771Z,12.80
2018-09-23T02:52:58.250Z,13.60
2018-09-23T02:55:28.699Z,13.67
2018-09-23T02:57:59.256Z,14.70
2018-09-23T03:00:29.723Z,15.00
2018-09-23T03:03:00.243Z,15.57
2018-09-23T03:05:30.709Z,14.63
2018-09-23T03:08:01.181Z,15.57
2018-09-23T03:10:31.852Z,15.03
2018-09-23T03:13:02.227Z,15.40
2018-09-23T03:15:32.661Z,15.23
2018-09-23T03:18:03.197Z,15.20
2018-09-23T03:20:33.778Z,15.17
2018-09-23T03:23:04.327Z,13.07
2018-09-23T03:25:34.727Z,13.90
2018-09-23T03:28:05.229Z,14.13
2018-09-23T03:30:35.742Z,14.03
2018-09-23T03:33:06.203Z,14.50
2018-09-23T03:35:36.662Z,16.80
2018-09-23T03:38:07.302Z,13.80
2018-09-23T03:40:37.967Z,13.33
2018-09-23T03:43:09.477Z,12.13
2018-09-23T03:45:40.104Z,14.23
2018-09-23T03:48:10.502Z,16.23
2018-09-23T03:50:41.120Z,18.50
2018-09-23T03:53:11.578Z,18.23
2018-09-23T03:55:42.017Z,17.97
2018-09-23T03:58:12.522Z,18.27
2018-09-23T04:00:43.031Z,17.50
2018-09-23T04:03:26.630Z,16.23
2018-09-23T04:05:57.581Z,14.60
2018-09-23T04:08:28.013Z,13.03
2018-09-23T04:10:58.318Z,12.90
2018-09-23T04:13:29.831Z,14.03
2018-09-23T04:16:00.226Z,12.13
2018-09-23T04:18:30.799Z,12.13
2018-09-23T04:21:01.141Z,11.83
2018-09-23T04:23:31.547Z,12.17
2018-09-23T04:26:01.904Z,13.67
2018-09-23T04:28:32.470Z,12.63
2018-09-23T04:31:02.804Z,12.80
2018-09-23T04:33:33.282Z,15.33
2018-09-23T04:36:03.736Z,14.00
2018-09-23T04:38:34.084Z,16.47
2018-09-23T04:41:04.658Z,16.37
2018-09-23T04:43:35.079Z,17.03
2018-09-23T04:46:05.510Z,17.77
2018-09-23T04:48:35.859Z,17.53
2018-09-23T04:51:06.582Z,16.30
2018-09-23T04:53:36.857Z,16.97
2018-09-23T04:56:07.653Z,17.47
2018-09-23T04:58:38.886Z,19.73
2018-09-23T05:01:09.759Z,21.47
2018-09-23T05:03:40.310Z,21.67
2018-09-23T05:06:11.960Z,21.37
2018-09-23T05:08:42.507Z,20.37
2018-09-23T05:11:12.950Z,17.90
2018-09-23T05:13:43.555Z,18.80
2018-09-23T05:16:14.040Z,14.73
2018-09-23T05:18:44.654Z,14.37
2018-09-23T05:21:15.042Z,11.23
2018-09-23T05:23:45.539Z,10.90
2018-09-23T05:26:15.920Z,12.00
2018-09-23T05:28:46.420Z,12.30
2018-09-23T05:31:16.986Z,12.53
2018-09-23T05:33:47.431Z,14.13
2018-09-23T05:36:17.974Z,14.87
2018-09-23T05:38:48.293Z,17.27
2018-09-23T05:41:18.790Z,17.50
2018-09-23T05:43:49.298Z,17.00
2018-09-23T05:46:19.833Z,17.53
2018-09-23T05:48:50.382Z,17.57
2018-09-23T05:51:20.812Z,17.80
2018-09-23T05:53:51.153Z,18.57
2018-09-23T05:56:21.651Z,21.37
2018-09-23T05:58:52.168Z,20.83
2018-09-23T06:01:22.685Z,21.13
2018-09-23T06:03:53.117Z,18.13
2018-09-23T06:06:23.638Z,18.03
2018-09-23T06:08:54.128Z,18.63
2018-09-23T06:11:24.609Z,19.40
2018-09-23T06:13:55.132Z,19.67
2018-09-23T06:16:25.934Z,18.43
2018-09-23T06:18:56.619Z,19.30
2018-09-23T06:21:27.134Z,19.63
2018-09-23T06:24:45.209Z,18.23
2018-09-23T06:27:16.008Z,15.50
2018-09-23T06:29:46.788Z,11.13
2018-09-23T06:32:17.521Z,9.53
2018-09-23T06:34:48.330Z,8.50
2018-09-23T06:37:19.093Z,9.03
2018-09-23T06:39:50.318Z,8.33
2018-09-23T06:42:21.353Z,8.17
2018-09-23T06:44:52.295Z,8.87
2018-09-23T06:47:23.299Z,8.73
2018-09-23T06:50:06.785Z,8.83
2018-09-23T06:52:37.412Z,8.97
2018-09-23T06:55:08.898Z,9.73
2018-09-23T06:57:40.019Z,10.43
2018-09-23T07:00:11.124Z,11.23
2018-09-23T07:02:41.774Z,11.37
2018-09-23T07:05:15.089Z,12.93
2018-09-23T07:07:45.895Z,13.60
2018-09-23T07:10:16.605Z,12.87
2018-09-23T07:12:47.172Z,13.60
2018-09-23T07:15:17.789Z,13.50
2018-09-23T07:17:48.742Z,14.57
2018-09-23T07:20:20.391Z,13.83
2018-09-23T07:22:51.273Z,15.50
2018-09-23T07:25:22.296Z,15.87
2018-09-23T07:27:52.990Z,17.23
2018-09-23T07:30:23.529Z,16.93
2018-09-23T07:32:54.941Z,16.70
2018-09-23T07:35:25.762Z,16.37
2018-09-23T07:37:56.619Z,15.10
2018-09-23T07:40:27.948Z,16.47
2018-09-23T07:42:58.873Z,15.20
2018-09-23T07:45:29.691Z,16.03
2018-09-23T07:48:00.279Z,16.37
2018-09-23T07:50:30.898Z,14.93
2018-09-23T07:53:01.667Z,13.67
2018-09-23T07:55:32.449Z,15.17
2018-09-23T07:58:04.214Z,13.03
2018-09-23T08:00:34.940Z,14.13
2018-09-23T08:03:05.591Z,15.37
2018-09-23T08:05:36.412Z,14.83
2018-09-23T08:08:07.943Z,15.03
2018-09-23T08:10:38.803Z,14.03
2018-09-23T08:13:09.648Z,13.30
2018-09-23T08:15:40.463Z,13.87
2018-09-23T08:18:11.219Z,13.97
2018-09-23T08:20:42.222Z,13.27
2018-09-23T08:23:13.009Z,13.33
2018-09-23T08:25:43.790Z,11.97
2018-09-23T08:28:14.353Z,11.17
2018-09-23T08:30:45.812Z,10.57
2018-09-23T08:33:17.192Z,9.70
2018-09-23T08:35:47.894Z,8.60
2018-09-23T08:38:18.634Z,8.40
2018-09-23T08:40:49.904Z,8.13
2018-09-23T08:43:20.829Z,7.33
2018-09-23T08:45:52.187Z,6.87
2018-09-23T08:48:22.899Z,7.30
2018-09-23T08:50:54.011Z,7.07
2018-09-23T08:53:25.127Z,7.13
2018-09-23T08:55:55.814Z,7.00
2018-09-23T08:58:26.418Z,6.70
2018-09-23T09:00:57.311Z,6.10
2018-09-23T09:03:27.962Z,6.73
2018-09-23T09:05:58.777Z,6.87
2018-09-23T09:08:29.481Z,6.90
2018-09-23T09:11:00.231Z,7.53
2018-09-23T09:13:30.927Z,6.03
2018-09-23T09:16:01.830Z,6.40
2018-09-23T09:18:32.582Z,6.73
2018-09-23T09:21:03.559Z,6.63
2018-09-23T09:23:34.111Z,7.40
2018-09-23T09:26:04.748Z,7.37
2018-09-23T09:28:36.091Z,7.90
2018-09-23T09:31:07.075Z,6.10
2018-09-23T09:33:37.984Z,6.43
2018-09-23T09:36:09.379Z,6.83
2018-09-23T09:38:40.274Z,6.67
2018-09-23T09:41:11.133Z,7.27
2018-09-23T09:43:42.271Z,6.30
2018-09-23T09:46:14.178Z,6.47
2018-09-23T09:48:45.154Z,5.70
2018-09-23T09:51:16.443Z,5.93
2018-09-23T09:53:47.607Z,6.20
2018-09-23T09:56:18.283Z,5.90
2018-09-23T09:58:49.175Z,5.80
2018-09-23T10:01:20.050Z,5.17
2018-09-23T10:03:50.945Z,5.73
2018-09-23T10:06:21.874Z,6.00
2018-09-23T10:08:53.493Z,5.90
2018-09-23T10:11:24.112Z,5.67
2018-09-23T10:13:54.681Z,5.10
2018-09-23T10:16:25.264Z,4.97
2018-09-23T10:18:56.104Z,5.27
2018-09-23T10:21:26.703Z,5.13
2018-09-23T10:23:59.925Z,5.60
2018-09-23T10:26:31.263Z,5.13
2018-09-23T10:29:02.521Z,5.03
2018-09-23T10:31:33.149Z,5.53
2018-09-23T10:34:04.867Z,5.27
2018-09-23T10:36:35.995Z,5.17
2018-09-23T10:39:10.536Z,5.10
2018-09-23T10:41:42.253Z,5.27
2018-09-23T10:44:13.833Z,4.97
2018-09-23T10:46:44.689Z,5.60
2018-09-23T10:49:15.982Z,4.90
2018-09-23T10:51:47.590Z,5.20
2018-09-23T10:54:19.170Z,4.77
2018-09-23T10:56:50.609Z,5.03
2018-09-23T10:59:21.546Z,4.77
2018-09-23T11:01:52.414Z,4.40
2018-09-23T11:04:23.204Z,4.10
2018-09-23T11:06:53.853Z,3.90
2018-09-23T11:09:26.344Z,3.73
2018-09-23T11:11:56.941Z,3.53
2018-09-23T11:14:27.707Z,4.03
2018-09-23T11:16:58.411Z,3.63
2018-09-23T11:19:29.334Z,3.70
2018-09-23T11:22:00.265Z,3.30
2018-09-23T11:24:30.826Z,3.60
2018-09-23T11:27:01.424Z,3.50
2018-09-23T11:29:32.747Z,3.50
2018-09-23T11:32:03.457Z,3.50
2018-09-23T11:34:34.058Z,3.57
2018-09-23T11:37:06.574Z,3.63
2018-09-23T11:39:39.382Z,3.70
2018-09-23T11:42:11.074Z,3.70
2018-09-23T11:44:42.908Z,3.60
2018-09-23T11:47:15.208Z,3.90
2018-09-23T11:49:46.787Z,3.40
2018-09-23T11:52:20.096Z,3.60
2018-09-23T11:54:52.230Z,3.37
2018-09-23T11:57:23.862Z,3.87
2018-09-23T11:59:56.495Z,4.23
2018-09-23T12:02:28.236Z,3.70
2018-09-23T12:05:00.949Z,3.60
2018-09-23T12:07:32.902Z,3.97
2018-09-23T12:10:04.585Z,3.77
2018-09-23T12:12:36.414Z,4.07
2018-09-23T12:15:09.005Z,3.90
2018-09-23T12:17:40.669Z,3.60
2018-09-23T12:20:12.332Z,3.83
2018-09-23T12:22:43.977Z,3.43
2018-09-23T12:25:18.060Z,3.50
2018-09-23T12:27:49.690Z,3.67
2018-09-23T12:30:21.277Z,3.77
2018-09-23T12:32:52.909Z,3.87
2018-09-23T12:35:24.603Z,3.80
2018-09-23T12:37:56.426Z,3.93
2018-09-23T12:40:28.345Z,4.17
2018-09-23T12:43:00.403Z,3.83
2018-09-23T12:45:32.536Z,3.53
2018-09-23T12:48:04.139Z,3.63
2018-09-23T12:50:35.995Z,3.70
2018-09-23T12:53:07.803Z,3.80
2018-09-23T12:55:40.793Z,3.77
2018-09-23T12:58:12.205Z,3.73
2018-09-23T13:00:43.792Z,3.77
2018-09-23T13:03:15.629Z,3.07
2018-09-23T13:05:47.272Z,3.30
2018-09-23T13:08:18.952Z,3.27
2018-09-23T13:10:50.835Z,3.40
2018-09-23T13:13:22.627Z,3.10
2018-09-23T13:15:54.654Z,3.50
2018-09-23T13:18:26.844Z,3.07
2018-09-23T13:20:59.156Z,3.20
2018-09-23T13:23:30.867Z,3.00
2018-09-23T13:26:02.343Z,3.20
2018-09-23T13:28:33.909Z,3.47
2018-09-23T13:31:06.157Z,3.20
2018-09-23T13:33:37.941Z,3.43
2018-09-23T13:36:10.110Z,3.27
2018-09-23T13:38:41.740Z,3.80
2018-09-23T13:41:13.222Z,3.77
2018-09-23T13:43:44.659Z,3.33
2018-09-23T13:46:16.852Z,3.27
2018-09-23T13:48:49.088Z,3.50
2018-09-23T13:51:20.581Z,3.30
2018-09-23T13:53:52.154Z,3.20
2018-09-23T13:56:23.554Z,3.10
2018-09-23T13:58:55.033Z,3.53
2018-09-23T14:01:26.865Z,3.40
2018-09-23T14:03:58.968Z,3.33
2018-09-23T14:06:31.031Z,3.00
2018-09-23T14:09:02.474Z,3.30
2018-09-23T14:11:34.633Z,4.27
2018-09-23T14:14:06.765Z,3.17
2018-09-23T14:16:38.357Z,3.60
2018-09-23T14:19:10.641Z,3.40
2018-09-23T14:21:42.706Z,3.20
2018-09-23T14:24:14.535Z,3.10
2018-09-23T14:26:45.359Z,3.67
2018-09-23T14:29:16.020Z,3.43
2018-09-23T14:31:46.770Z,3.63
2018-09-23T14:34:17.369Z,3.50
2018-09-23T14:36:57.059Z,3.57
2018-09-23T14:39:27.851Z,3.00
2018-09-23T14:41:58.430Z,3.70
2018-09-23T14:44:32.348Z,3.00
2018-09-23T14:47:03.459Z,3.47
2018-09-23T14:49:34.204Z,3.47
2018-09-23T14:52:04.637Z,3.10
2018-09-23T14:54:35.323Z,3.07
2018-09-23T14:57:06.693Z,3.10
2018-09-23T14:59:38.614Z,3.10
2018-09-23T15:02:09.913Z,3.10
2018-09-23T15:04:41.939Z,3.10
2018-09-23T15:07:13.978Z,3.20
2018-09-23T15:09:45.761Z,3.40
2018-09-23T15:12:16.813Z,3.60
2018-09-23T15:14:48.428Z,2.83
2018-09-23T15:17:19.861Z,3.00
2018-09-23T15:19:52.390Z,3.33
2018-09-23T15:22:24.481Z,3.50
2018-09-23T15:24:55.922Z,3.30
2018-09-23T15:27:27.435Z,3.30
2018-09-23T15:29:59.056Z,2.90
2018-09-23T15:32:30.627Z,3.20
2018-09-23T15:35:02.566Z,3.00
2018-09-23T15:37:34.033Z,3.10
2018-09-23T15:40:05.757Z,3.17
2018-09-23T15:42:37.151Z,3.60
2018-09-23T15:45:08.919Z,3.23
2018-09-23T15:47:40.702Z,3.30
2018-09-23T15:50:12.295Z,3.57
2018-09-23T15:52:44.820Z,2.97
2018-09-23T15:55:16.913Z,2.90
2018-09-23T15:57:48.301Z,3.10
2018-09-23T16:00:20.113Z,4.37
2018-09-23T16:02:51.843Z,2.97
2018-09-23T16:05:25.240Z,3.10
2018-09-23T16:07:56.917Z,3.13
2018-09-23T16:10:28.761Z,2.93
2018-09-23T16:13:01.814Z,3.27
2018-09-23T16:15:34.293Z,3.40
2018-09-23T16:18:05.946Z,3.10
2018-09-23T16:20:37.753Z,2.90
2018-09-23T16:23:11.293Z,3.27
2018-09-23T16:25:44.206Z,2.90
2018-09-23T16:28:16.000Z,2.80
2018-09-23T16:30:47.789Z,3.03
2018-09-23T16:33:19.787Z,3.67
2018-09-23T16:35:51.696Z,3.30
2018-09-23T16:38:23.315Z,3.00
2018-09-23T16:40:55.248Z,2.90
2018-09-23T16:43:29.298Z,3.17
2018-09-23T16:46:01.262Z,2.47
2018-09-23T16:48:33.231Z,2.97
2018-09-23T16:51:05.116Z,2.77
2018-09-23T16:53:37.164Z,3.10
2018-09-23T16:56:10.233Z,3.03
2018-09-23T16:58:42.918Z,2.80
2018-09-23T17:01:20.112Z,2.90
2018-09-23T17:03:52.099Z,3.23
2018-09-23T17:06:24.422Z,3.00
2018-09-23T17:08:56.201Z,4.13
2018-09-23T17:11:28.142Z,3.23
2018-09-23T17:14:00.230Z,3.30
2018-09-23T17:16:33.918Z,2.93
2018-09-23T17:19:05.825Z,3.27
2018-09-23T17:21:40.630Z,2.97
2018-09-23T17:24:12.970Z,3.10
2018-09-23T17:26:45.908Z,2.90
2018-09-23T17:29:17.949Z,2.90
2018-09-23T17:31:51.047Z,4.13
2018-09-23T17:34:22.770Z,6.40
2018-09-23T17:36:55.512Z,5.37
2018-09-23T17:39:27.135Z,7.93
2018-09-23T17:42:01.915Z,5.47
2018-09-23T17:44:34.360Z,5.70
2018-09-23T17:47:06.503Z,3.80
2018-09-23T17:49:38.374Z,4.07
2018-09-23T17:52:10.436Z,3.77
2018-09-23T17:54:42.280Z,3.53
2018-09-23T17:57:14.447Z,3.27
2018-09-23T17:59:46.629Z,3.60
2018-09-23T18:02:19.484Z,2.77
2018-09-23T18:04:52.032Z,2.73
2018-09-23T18:07:23.952Z,3.40
2018-09-23T18:09:55.901Z,3.40
2018-09-23T18:12:28.239Z,3.00
2018-09-23T18:14:59.858Z,3.23
2018-09-23T18:17:31.797Z,3.00
2018-09-23T18:20:03.798Z,3.07
2018-09-23T18:22:35.670Z,3.67
2018-09-23T18:25:07.566Z,3.40
2018-09-23T18:27:39.488Z,3.10
2018-09-23T18:30:12.134Z,3.30
2018-09-23T18:32:44.652Z,3.63
2018-09-23T18:35:16.812Z,3.47
2018-09-23T18:37:48.591Z,4.17
2018-09-23T18:40:21.758Z,4.80
2018-09-23T18:42:53.727Z,4.27
2018-09-23T18:45:26.061Z,4.40
2018-09-23T18:47:58.356Z,4.13
2018-09-23T18:50:30.438Z,3.43
2018-09-23T18:53:07.469Z,3.87
2018-09-23T18:55:40.592Z,4.37
2018-09-23T18:58:12.938Z,3.33
2018-09-23T19:00:45.750Z,3.43
2018-09-23T19:03:18.614Z,3.53
2018-09-23T19:05:50.860Z,3.77
2018-09-23T19:08:22.622Z,3.60
2018-09-23T19:10:54.571Z,3.70
2018-09-23T19:13:31.730Z,3.83
2018-09-23T19:16:08.808Z,3.80
2018-09-23T19:18:40.865Z,18.50
2018-09-23T19:21:14.642Z,8.00
2018-09-23T19:23:48.465Z,4.10
2018-09-23T19:26:21.494Z,3.77
2018-09-23T19:28:54.032Z,3.87
2018-09-23T19:31:26.131Z,3.47
2018-09-23T19:33:57.747Z,3.57
2018-09-23T19:36:29.692Z,3.70
2018-09-23T19:39:02.089Z,3.93
2018-09-23T19:41:34.661Z,4.03
2018-09-23T19:44:06.961Z,3.47
2018-09-23T19:46:39.437Z,3.40
2018-09-23T19:49:11.401Z,4.20
2018-09-23T19:51:44.374Z,3.97
2018-09-23T19:54:16.361Z,3.20
2018-09-23T19:56:49.464Z,4.10
2018-09-23T19:59:21.135Z,4.03
2018-09-23T20:01:53.411Z,3.70
2018-09-23T20:04:25.742Z,3.87
2018-09-23T20:07:13.283Z,4.00
2018-09-23T20:09:45.093Z,3.40
2018-09-23T20:12:17.510Z,4.07
2018-09-23T20:14:48.846Z,3.70
2018-09-23T20:17:20.178Z,4.23
2018-09-23T20:19:51.234Z,4.27
2018-09-23T20:22:23.770Z,3.83
2018-09-23T20:24:54.995Z,4.10
2018-09-23T20:27:26.453Z,4.10
2018-09-23T20:29:57.470Z,4.07
2018-09-23T20:32:28.162Z,3.93
2018-09-23T20:34:58.913Z,3.90
2018-09-23T20:37:29.751Z,4.60
2018-09-23T20:40:00.398Z,4.30
2018-09-23T20:42:31.338Z,4.43
2018-09-23T20:45:02.957Z,4.87
2018-09-23T20:47:33.992Z,4.33
2018-09-23T20:50:05.513Z,5.10
2018-09-23T20:52:36.567Z,5.17
2018-09-23T20:55:08.617Z,4.73
2018-09-23T20:57:39.330Z,5.07
2018-09-23T21:00:10.984Z,5.90
2018-09-23T21:02:41.951Z,5.07
2018-09-23T21:05:13.064Z,5.60
2018-09-23T21:07:44.516Z,6.27
2018-09-23T21:10:15.441Z,5.60
2018-09-23T21:12:46.990Z,5.53
2018-09-23T21:15:18.749Z,6.20
2018-09-23T21:17:50.542Z,6.63
2018-09-23T21:20:21.652Z,6.33
2018-09-23T21:22:52.534Z,6.20
2018-09-23T21:25:23.307Z,5.57
2018-09-23T21:27:54.334Z,6.20
2018-09-23T21:30:25.043Z,6.13
2018-09-23T21:32:56.293Z,6.27
2018-09-23T21:35:27.372Z,6.00
2018-09-23T21:37:58.449Z,5.53
2018-09-23T21:40:29.506Z,7.20
2018-09-23T21:43:00.120Z,6.03
2018-09-23T21:45:30.816Z,6.23
2018-09-23T21:48:01.501Z,5.50
2018-09-23T21:50:31.871Z,5.10
2018-09-23T21:53:02.913Z,5.97
2018-09-23T21:55:34.189Z,5.30
2018-09-23T21:58:04.691Z,6.50
2018-09-23T22:00:40.314Z,5.93
2018-09-23T22:03:11.712Z,6.07
2018-09-23T22:05:43.334Z,6.03
2018-09-23T22:08:15.068Z,5.70
2018-09-23T22:10:45.614Z,5.97
2018-09-23T22:13:16.163Z,6.47
2018-09-23T22:15:46.831Z,6.33
2018-09-23T22:18:19.341Z,6.30
2018-09-23T22:20:49.823Z,6.07
2018-09-23T22:23:20.366Z,6.37
2018-09-23T22:25:51.011Z,5.87
2018-09-23T22:28:21.595Z,6.13
2018-09-23T22:30:52.102Z,6.50
2018-09-23T22:33:22.612Z,7.23
2018-09-23T22:35:53.165Z,6.53
2018-09-23T22:38:23.691Z,7.00
2018-09-23T22:40:54.501Z,7.23
2018-09-23T22:43:25.108Z,6.30
2018-09-23T22:45:55.784Z,7.33
2018-09-23T22:48:26.604Z,7.10
2018-09-23T22:50:57.015Z,7.97
2018-09-23T22:53:27.433Z,7.40
2018-09-23T22:55:57.955Z,8.43
2018-09-23T22:58:28.349Z,8.00
2018-09-23T23:00:58.730Z,7.40
2018-09-23T23:03:29.231Z,7.63
2018-09-23T23:06:00.561Z,7.93
2018-09-23T23:08:30.968Z,7.73
2018-09-23T23:11:01.525Z,7.57
2018-09-23T23:13:32.211Z,7.77
2018-09-23T23:16:02.729Z,11.27
2018-09-23T23:18:33.521Z,10.20
2018-09-23T23:21:03.961Z,9.30
2018-09-23T23:23:34.598Z,7.77
2018-09-23T23:26:05.064Z,8.43
2018-09-23T23:28:35.438Z,7.20
2018-09-23T23:31:05.940Z,6.43
2018-09-23T23:33:37.236Z,6.33
2018-09-23T23:36:07.821Z,6.20
2018-09-23T23:38:38.376Z,6.80
2018-09-23T23:41:08.789Z,7.13
2018-09-23T23:43:39.261Z,8.10
2018-09-23T23:46:09.804Z,8.17
2018-09-23T23:48:40.308Z,8.20
2018-09-23T23:51:10.785Z,8.80
2018-09-23T23:53:41.301Z,10.70
2018-09-23T23:56:11.864Z,9.27
2018-09-23T23:58:42.246Z,10.80
